sensor_id;sensor_type;location;lat;lon;timestamp;P1;durP1;ratioP1;P2;durP2;ratioP2
4957;SDS011;2494;51.872;9.688;2022-08-14T00:01:25;9.83;;;9.13;;
4957;SDS011;2494;51.872;9.688;2022-08-14T00:03:51;9.37;;;8.73;;
4957;SDS011;2494;51.872;9.688;2022-08-14T00:06:17;9.57;;;8.80;;
4957;SDS011;2494;51.872;9.688;2022-08-14T00:08:43;13.80;;;8.10;;
4957;SDS011;2494;51.872;9.688;2022-08-14T00:11:10;9.17;;;8.30;;
4957;SDS011;2494;51.872;9.688;2022-08-14T00:13:37;8.57;;;8.03;;
4957;SDS011;2494;51.872;9.688;2022-08-14T00:16:04;9.33;;;8.70;;
4957;SDS011;2494;51.872;9.688;2022-08-14T00:18:30;8.63;;;8.07;;
4957;SDS011;2494;51.872;9.688;2022-08-14T00:20:57;10.07;;;9.23;;
4957;SDS011;2494;51.872;9.688;2022-08-14T00:23:24;9.80;;;9.10;;
4957;SDS011;2494;51.872;9.688;2022-08-14T00:25:52;9.10;;;8.60;;
4957;SDS011;2494;51.872;9.688;2022-08-14T00:28:18;9.43;;;8.60;;
4957;SDS011;2494;51.872;9.688;2022-08-14T00:30:51;10.13;;;9.53;;
4957;SDS011;2494;51.872;9.688;2022-08-14T00:33:17;9.33;;;8.73;;
4957;SDS011;2494;51.872;9.688;2022-08-14T00:35:44;9.60;;;8.80;;
4957;SDS011;2494;51.872;9.688;2022-08-14T00:38:10;9.03;;;8.53;;
4957;SDS011;2494;51.872;9.688;2022-08-14T00:40:37;9.93;;;9.20;;
4957;SDS011;2494;51.872;9.688;2022-08-14T00:43:03;9.83;;;9.10;;
4957;SDS011;2494;51.872;9.688;2022-08-14T00:45:29;9.30;;;8.70;;
4957;SDS011;2494;51.872;9.688;2022-08-14T00:47:57;9.67;;;9.07;;
4957;SDS011;2494;51.872;9.688;2022-08-14T00:50:23;9.23;;;8.70;;
4957;SDS011;2494;51.872;9.688;2022-08-14T00:52:50;9.60;;;8.90;;
4957;SDS011;2494;51.872;9.688;2022-08-14T00:55:17;10.00;;;9.30;;
4957;SDS011;2494;51.872;9.688;2022-08-14T00:57:44;9.43;;;8.63;;
4957;SDS011;2494;51.872;9.688;2022-08-14T01:00:31;9.83;;;8.83;;
4957;SDS011;2494;51.872;9.688;2022-08-14T01:02:59;8.80;;;8.30;;
4957;SDS011;2494;51.872;9.688;2022-08-14T01:05:26;8.83;;;8.20;;
4957;SDS011;2494;51.872;9.688;2022-08-14T01:07:53;9.90;;;9.20;;
4957;SDS011;2494;51.872;9.688;2022-08-14T01:10:21;8.63;;;8.03;;
4957;SDS011;2494;51.872;9.688;2022-08-14T01:13:09;10.93;;;9.40;;
4957;SDS011;2494;51.872;9.688;2022-08-14T01:15:36;9.90;;;9.20;;
4957;SDS011;2494;51.872;9.688;2022-08-14T01:18:03;10.17;;;9.43;;
4957;SDS011;2494;51.872;9.688;2022-08-14T01:20:47;9.80;;;9.20;;
4957;SDS011;2494;51.872;9.688;2022-08-14T01:23:32;9.10;;;8.40;;
4957;SDS011;2494;51.872;9.688;2022-08-14T01:25:59;9.30;;;8.60;;
4957;SDS011;2494;51.872;9.688;2022-08-14T01:28:25;8.93;;;8.23;;
4957;SDS011;2494;51.872;9.688;2022-08-14T01:30:52;9.93;;;9.00;;
4957;SDS011;2494;51.872;9.688;2022-08-14T01:33:20;11.00;;;9.90;;
4957;SDS011;2494;51.872;9.688;2022-08-14T01:35:47;10.60;;;9.80;;
4957;SDS011;2494;51.872;9.688;2022-08-14T01:38:13;10.40;;;9.70;;
4957;SDS011;2494;51.872;9.688;2022-08-14T01:40:41;11.17;;;10.03;;
4957;SDS011;2494;51.872;9.688;2022-08-14T01:43:08;11.40;;;10.60;;
4957;SDS011;2494;51.872;9.688;2022-08-14T01:45:41;10.37;;;9.67;;
4957;SDS011;2494;51.872;9.688;2022-08-14T01:48:08;10.23;;;9.43;;
4957;SDS011;2494;51.872;9.688;2022-08-14T01:50:35;10.33;;;9.63;;
4957;SDS011;2494;51.872;9.688;2022-08-14T01:53:02;10.50;;;9.80;;
4957;SDS011;2494;51.872;9.688;2022-08-14T01:55:28;10.10;;;9.50;;
4957;SDS011;2494;51.872;9.688;2022-08-14T01:57:57;10.27;;;9.67;;
4957;SDS011;2494;51.872;9.688;2022-08-14T02:00:24;12.07;;;11.07;;
4957;SDS011;2494;51.872;9.688;2022-08-14T02:02:50;12.40;;;11.20;;
4957;SDS011;2494;51.872;9.688;2022-08-14T02:05:16;11.23;;;10.43;;
4957;SDS011;2494;51.872;9.688;2022-08-14T02:07:43;11.07;;;10.27;;
4957;SDS011;2494;51.872;9.688;2022-08-14T02:10:11;10.50;;;9.80;;
4957;SDS011;2494;51.872;9.688;2022-08-14T02:12:38;10.27;;;9.30;;
4957;SDS011;2494;51.872;9.688;2022-08-14T02:15:07;10.30;;;9.40;;
4957;SDS011;2494;51.872;9.688;2022-08-14T02:17:34;10.67;;;9.97;;
4957;SDS011;2494;51.872;9.688;2022-08-14T02:20:02;10.17;;;9.50;;
4957;SDS011;2494;51.872;9.688;2022-08-14T02:22:28;10.20;;;9.40;;
4957;SDS011;2494;51.872;9.688;2022-08-14T02:24:55;10.00;;;9.40;;
4957;SDS011;2494;51.872;9.688;2022-08-14T02:27:21;9.93;;;9.23;;
4957;SDS011;2494;51.872;9.688;2022-08-14T02:29:47;10.27;;;9.47;;
4957;SDS011;2494;51.872;9.688;2022-08-14T02:32:16;9.47;;;8.83;;
4957;SDS011;2494;51.872;9.688;2022-08-14T02:34:44;10.80;;;10.00;;
4957;SDS011;2494;51.872;9.688;2022-08-14T02:37:11;11.57;;;10.67;;
4957;SDS011;2494;51.872;9.688;2022-08-14T02:39:39;11.03;;;10.17;;
4957;SDS011;2494;51.872;9.688;2022-08-14T02:42:06;10.33;;;9.63;;
4957;SDS011;2494;51.872;9.688;2022-08-14T02:44:33;11.57;;;10.63;;
4957;SDS011;2494;51.872;9.688;2022-08-14T02:46:59;10.20;;;9.50;;
4957;SDS011;2494;51.872;9.688;2022-08-14T02:49:28;10.70;;;9.90;;
4957;SDS011;2494;51.872;9.688;2022-08-14T02:51:55;9.07;;;8.47;;
4957;SDS011;2494;51.872;9.688;2022-08-14T02:54:21;9.20;;;8.60;;
4957;SDS011;2494;51.872;9.688;2022-08-14T02:56:48;8.70;;;8.13;;
4957;SDS011;2494;51.872;9.688;2022-08-14T02:59:14;10.63;;;10.03;;
4957;SDS011;2494;51.872;9.688;2022-08-14T03:01:41;10.87;;;10.07;;
4957;SDS011;2494;51.872;9.688;2022-08-14T03:04:08;11.50;;;10.70;;
4957;SDS011;2494;51.872;9.688;2022-08-14T03:06:36;9.90;;;9.30;;
4957;SDS011;2494;51.872;9.688;2022-08-14T03:09:03;10.30;;;9.53;;
4957;SDS011;2494;51.872;9.688;2022-08-14T03:11:29;12.10;;;11.20;;
4957;SDS011;2494;51.872;9.688;2022-08-14T03:13:56;10.27;;;9.57;;
4957;SDS011;2494;51.872;9.688;2022-08-14T03:16:24;10.80;;;9.97;;
4957;SDS011;2494;51.872;9.688;2022-08-14T03:18:52;11.60;;;10.80;;
4957;SDS011;2494;51.872;9.688;2022-08-14T03:21:23;11.73;;;10.73;;
4957;SDS011;2494;51.872;9.688;2022-08-14T03:23:51;10.13;;;9.53;;
4957;SDS011;2494;51.872;9.688;2022-08-14T03:26:24;11.93;;;11.03;;
4957;SDS011;2494;51.872;9.688;2022-08-14T03:28:53;12.20;;;11.30;;
4957;SDS011;2494;51.872;9.688;2022-08-14T03:31:20;11.77;;;10.50;;
4957;SDS011;2494;51.872;9.688;2022-08-14T03:33:47;12.10;;;10.80;;
4957;SDS011;2494;51.872;9.688;2022-08-14T03:36:15;11.17;;;9.70;;
4957;SDS011;2494;51.872;9.688;2022-08-14T03:38:42;11.33;;;10.53;;
4957;SDS011;2494;51.872;9.688;2022-08-14T03:41:11;11.50;;;10.60;;
4957;SDS011;2494;51.872;9.688;2022-08-14T03:43:39;11.40;;;10.53;;
4957;SDS011;2494;51.872;9.688;2022-08-14T03:46:05;9.07;;;8.33;;
4957;SDS011;2494;51.872;9.688;2022-08-14T03:48:32;10.10;;;9.30;;
4957;SDS011;2494;51.872;9.688;2022-08-14T03:50:59;11.27;;;10.43;;
4957;SDS011;2494;51.872;9.688;2022-08-14T03:53:25;13.90;;;12.70;;
4957;SDS011;2494;51.872;9.688;2022-08-14T03:55:51;12.80;;;11.90;;
4957;SDS011;2494;51.872;9.688;2022-08-14T03:58:22;12.97;;;11.67;;
4957;SDS011;2494;51.872;9.688;2022-08-14T04:00:48;12.30;;;11.50;;
4957;SDS011;2494;51.872;9.688;2022-08-14T04:03:14;11.50;;;10.70;;
4957;SDS011;2494;51.872;9.688;2022-08-14T04:05:41;16.53;;;10.50;;
4957;SDS011;2494;51.872;9.688;2022-08-14T04:08:08;10.90;;;10.20;;
4957;SDS011;2494;51.872;9.688;2022-08-14T04:10:34;10.70;;;9.90;;
4957;SDS011;2494;51.872;9.688;2022-08-14T04:13:01;10.57;;;9.77;;
4957;SDS011;2494;51.872;9.688;2022-08-14T04:15:29;10.90;;;10.13;;
4957;SDS011;2494;51.872;9.688;2022-08-14T04:17:56;11.20;;;10.50;;
4957;SDS011;2494;51.872;9.688;2022-08-14T04:20:22;12.10;;;11.20;;
4957;SDS011;2494;51.872;9.688;2022-08-14T04:22:49;12.97;;;11.87;;
4957;SDS011;2494;51.872;9.688;2022-08-14T04:25:15;11.77;;;10.77;;
4957;SDS011;2494;51.872;9.688;2022-08-14T04:27:43;10.57;;;9.97;;
4957;SDS011;2494;51.872;9.688;2022-08-14T04:30:10;11.00;;;10.13;;
4957;SDS011;2494;51.872;9.688;2022-08-14T04:32:38;11.13;;;10.23;;
4957;SDS011;2494;51.872;9.688;2022-08-14T04:35:04;11.20;;;10.40;;
4957;SDS011;2494;51.872;9.688;2022-08-14T04:37:30;11.13;;;10.33;;
4957;SDS011;2494;51.872;9.688;2022-08-14T04:40:14;11.57;;;10.67;;
4957;SDS011;2494;51.872;9.688;2022-08-14T04:42:58;11.87;;;10.87;;
4957;SDS011;2494;51.872;9.688;2022-08-14T04:45:42;11.40;;;10.60;;
4957;SDS011;2494;51.872;9.688;2022-08-14T04:48:11;11.40;;;10.47;;
4957;SDS011;2494;51.872;9.688;2022-08-14T04:50:40;12.17;;;11.17;;
4957;SDS011;2494;51.872;9.688;2022-08-14T04:53:06;13.93;;;12.83;;
4957;SDS011;2494;51.872;9.688;2022-08-14T04:55:34;15.83;;;14.53;;
4957;SDS011;2494;51.872;9.688;2022-08-14T04:58:02;15.87;;;14.43;;
4957;SDS011;2494;51.872;9.688;2022-08-14T05:00:28;13.73;;;12.70;;
4957;SDS011;2494;51.872;9.688;2022-08-14T05:02:55;12.17;;;11.20;;
4957;SDS011;2494;51.872;9.688;2022-08-14T05:05:23;13.10;;;12.03;;
4957;SDS011;2494;51.872;9.688;2022-08-14T05:07:50;14.63;;;13.43;;
4957;SDS011;2494;51.872;9.688;2022-08-14T05:10:17;13.27;;;12.30;;
4957;SDS011;2494;51.872;9.688;2022-08-14T05:12:47;14.47;;;13.17;;
4957;SDS011;2494;51.872;9.688;2022-08-14T05:15:16;13.70;;;12.50;;
4957;SDS011;2494;51.872;9.688;2022-08-14T05:17:43;14.33;;;12.10;;
4957;SDS011;2494;51.872;9.688;2022-08-14T05:20:10;11.87;;;10.97;;
4957;SDS011;2494;51.872;9.688;2022-08-14T05:22:38;12.43;;;11.37;;
4957;SDS011;2494;51.872;9.688;2022-08-14T05:25:05;9.90;;;9.30;;
4957;SDS011;2494;51.872;9.688;2022-08-14T05:27:31;10.43;;;9.70;;
4957;SDS011;2494;51.872;9.688;2022-08-14T05:29:57;9.37;;;8.57;;
4957;SDS011;2494;51.872;9.688;2022-08-14T05:32:25;8.33;;;7.73;;
4957;SDS011;2494;51.872;9.688;2022-08-14T05:34:51;8.80;;;8.00;;
4957;SDS011;2494;51.872;9.688;2022-08-14T05:37:17;8.10;;;7.50;;
4957;SDS011;2494;51.872;9.688;2022-08-14T05:39:45;8.53;;;8.03;;
4957;SDS011;2494;51.872;9.688;2022-08-14T05:42:11;9.63;;;9.03;;
4957;SDS011;2494;51.872;9.688;2022-08-14T05:44:38;7.57;;;7.17;;
4957;SDS011;2494;51.872;9.688;2022-08-14T05:47:05;9.10;;;8.50;;
4957;SDS011;2494;51.872;9.688;2022-08-14T05:49:31;8.90;;;8.40;;
4957;SDS011;2494;51.872;9.688;2022-08-14T05:51:57;9.67;;;9.10;;
4957;SDS011;2494;51.872;9.688;2022-08-14T05:54:24;9.97;;;9.30;;
4957;SDS011;2494;51.872;9.688;2022-08-14T05:56:51;8.80;;;8.27;;
4957;SDS011;2494;51.872;9.688;2022-08-14T05:59:18;9.30;;;8.80;;
4957;SDS011;2494;51.872;9.688;2022-08-14T06:01:44;9.80;;;9.13;;
4957;SDS011;2494;51.872;9.688;2022-08-14T06:04:10;8.87;;;8.27;;
4957;SDS011;2494;51.872;9.688;2022-08-14T06:06:37;8.70;;;8.00;;
4957;SDS011;2494;51.872;9.688;2022-08-14T06:09:03;8.90;;;8.50;;
4957;SDS011;2494;51.872;9.688;2022-08-14T06:11:30;9.23;;;8.63;;
4957;SDS011;2494;51.872;9.688;2022-08-14T06:13:57;9.10;;;8.30;;
4957;SDS011;2494;51.872;9.688;2022-08-14T06:16:24;9.07;;;8.47;;
4957;SDS011;2494;51.872;9.688;2022-08-14T06:18:50;8.60;;;8.00;;
4957;SDS011;2494;51.872;9.688;2022-08-14T06:21:17;8.53;;;8.00;;
4957;SDS011;2494;51.872;9.688;2022-08-14T06:23:43;8.70;;;8.30;;
4957;SDS011;2494;51.872;9.688;2022-08-14T06:26:09;9.20;;;8.57;;
4957;SDS011;2494;51.872;9.688;2022-08-14T06:28:35;9.07;;;8.37;;
4957;SDS011;2494;51.872;9.688;2022-08-14T06:31:04;8.27;;;7.67;;
4957;SDS011;2494;51.872;9.688;2022-08-14T06:33:30;8.67;;;8.27;;
4957;SDS011;2494;51.872;9.688;2022-08-14T06:35:57;7.90;;;7.50;;
4957;SDS011;2494;51.872;9.688;2022-08-14T06:38:23;7.93;;;7.47;;
4957;SDS011;2494;51.872;9.688;2022-08-14T06:40:50;7.00;;;6.70;;
4957;SDS011;2494;51.872;9.688;2022-08-14T06:43:16;7.80;;;7.30;;
4957;SDS011;2494;51.872;9.688;2022-08-14T06:45:43;8.27;;;7.77;;
4957;SDS011;2494;51.872;9.688;2022-08-14T06:48:15;7.17;;;6.77;;
4957;SDS011;2494;51.872;9.688;2022-08-14T06:50:41;7.63;;;7.33;;
4957;SDS011;2494;51.872;9.688;2022-08-14T06:53:08;7.20;;;6.80;;
4957;SDS011;2494;51.872;9.688;2022-08-14T06:55:34;8.67;;;8.03;;
4957;SDS011;2494;51.872;9.688;2022-08-14T06:58:00;7.40;;;7.00;;
4957;SDS011;2494;51.872;9.688;2022-08-14T07:00:27;6.90;;;6.60;;
4957;SDS011;2494;51.872;9.688;2022-08-14T07:02:54;7.70;;;7.20;;
4957;SDS011;2494;51.872;9.688;2022-08-14T07:05:39;7.63;;;7.23;;
4957;SDS011;2494;51.872;9.688;2022-08-14T07:08:12;7.53;;;7.20;;
4957;SDS011;2494;51.872;9.688;2022-08-14T07:10:39;7.80;;;7.50;;
4957;SDS011;2494;51.872;9.688;2022-08-14T07:13:07;7.33;;;7.03;;
4957;SDS011;2494;51.872;9.688;2022-08-14T07:15:34;7.30;;;6.90;;
4957;SDS011;2494;51.872;9.688;2022-08-14T07:18:00;7.33;;;6.83;;
4957;SDS011;2494;51.872;9.688;2022-08-14T07:20:27;7.17;;;6.57;;
4957;SDS011;2494;51.872;9.688;2022-08-14T07:22:55;7.60;;;7.20;;
4957;SDS011;2494;51.872;9.688;2022-08-14T07:25:22;6.87;;;6.37;;
4957;SDS011;2494;51.872;9.688;2022-08-14T07:27:49;7.60;;;7.20;;
4957;SDS011;2494;51.872;9.688;2022-08-14T07:30:15;6.50;;;6.20;;
4957;SDS011;2494;51.872;9.688;2022-08-14T07:32:42;7.53;;;7.10;;
4957;SDS011;2494;51.872;9.688;2022-08-14T07:35:08;7.20;;;6.80;;
4957;SDS011;2494;51.872;9.688;2022-08-14T07:37:34;7.20;;;6.80;;
4957;SDS011;2494;51.872;9.688;2022-08-14T07:40:03;6.53;;;6.13;;
4957;SDS011;2494;51.872;9.688;2022-08-14T07:42:30;7.33;;;7.00;;
4957;SDS011;2494;51.872;9.688;2022-08-14T07:44:56;7.50;;;7.10;;
4957;SDS011;2494;51.872;9.688;2022-08-14T07:47:23;7.70;;;7.40;;
4957;SDS011;2494;51.872;9.688;2022-08-14T07:49:52;7.00;;;6.60;;
4957;SDS011;2494;51.872;9.688;2022-08-14T07:52:19;7.40;;;7.00;;
4957;SDS011;2494;51.872;9.688;2022-08-14T07:54:46;7.30;;;7.00;;
4957;SDS011;2494;51.872;9.688;2022-08-14T07:57:14;7.60;;;7.30;;
4957;SDS011;2494;51.872;9.688;2022-08-14T07:59:42;8.67;;;8.07;;
4957;SDS011;2494;51.872;9.688;2022-08-14T08:02:09;8.10;;;7.70;;
4957;SDS011;2494;51.872;9.688;2022-08-14T08:04:36;7.73;;;7.33;;
4957;SDS011;2494;51.872;9.688;2022-08-14T08:07:05;7.97;;;7.50;;
4957;SDS011;2494;51.872;9.688;2022-08-14T08:09:31;7.73;;;7.33;;
4957;SDS011;2494;51.872;9.688;2022-08-14T08:12:00;6.83;;;6.53;;
4957;SDS011;2494;51.872;9.688;2022-08-14T08:14:28;7.40;;;6.90;;
4957;SDS011;2494;51.872;9.688;2022-08-14T08:16:55;7.13;;;6.83;;
4957;SDS011;2494;51.872;9.688;2022-08-14T08:19:21;9.27;;;8.17;;
4957;SDS011;2494;51.872;9.688;2022-08-14T08:21:49;8.37;;;7.97;;
4957;SDS011;2494;51.872;9.688;2022-08-14T08:24:15;7.77;;;7.27;;
4957;SDS011;2494;51.872;9.688;2022-08-14T08:26:42;6.87;;;6.37;;
4957;SDS011;2494;51.872;9.688;2022-08-14T08:29:08;6.90;;;6.60;;
4957;SDS011;2494;51.872;9.688;2022-08-14T08:31:46;7.90;;;7.47;;
4957;SDS011;2494;51.872;9.688;2022-08-14T08:34:14;8.00;;;7.70;;
4957;SDS011;2494;51.872;9.688;2022-08-14T08:36:40;7.80;;;7.30;;
4957;SDS011;2494;51.872;9.688;2022-08-14T08:39:07;8.40;;;7.80;;
4957;SDS011;2494;51.872;9.688;2022-08-14T08:41:39;8.40;;;8.00;;
4957;SDS011;2494;51.872;9.688;2022-08-14T08:44:06;8.30;;;7.70;;
4957;SDS011;2494;51.872;9.688;2022-08-14T08:46:32;9.30;;;8.70;;
4957;SDS011;2494;51.872;9.688;2022-08-14T08:49:00;9.23;;;8.60;;
4957;SDS011;2494;51.872;9.688;2022-08-14T08:51:27;8.00;;;7.40;;
4957;SDS011;2494;51.872;9.688;2022-08-14T08:53:55;8.97;;;8.50;;
4957;SDS011;2494;51.872;9.688;2022-08-14T08:56:31;9.40;;;8.80;;
4957;SDS011;2494;51.872;9.688;2022-08-14T08:58:58;8.57;;;8.10;;
4957;SDS011;2494;51.872;9.688;2022-08-14T09:01:26;7.57;;;7.17;;
4957;SDS011;2494;51.872;9.688;2022-08-14T09:04:01;8.13;;;7.70;;
4957;SDS011;2494;51.872;9.688;2022-08-14T09:06:27;8.20;;;7.73;;
4957;SDS011;2494;51.872;9.688;2022-08-14T09:08:54;8.63;;;8.20;;
4957;SDS011;2494;51.872;9.688;2022-08-14T09:11:20;9.23;;;8.73;;
4957;SDS011;2494;51.872;9.688;2022-08-14T09:13:48;8.17;;;7.63;;
4957;SDS011;2494;51.872;9.688;2022-08-14T09:16:16;8.80;;;8.30;;
4957;SDS011;2494;51.872;9.688;2022-08-14T09:18:43;7.80;;;7.30;;
4957;SDS011;2494;51.872;9.688;2022-08-14T09:21:11;8.37;;;7.90;;
4957;SDS011;2494;51.872;9.688;2022-08-14T09:23:38;7.57;;;7.27;;
4957;SDS011;2494;51.872;9.688;2022-08-14T09:26:05;8.33;;;7.93;;
4957;SDS011;2494;51.872;9.688;2022-08-14T09:28:31;8.47;;;7.87;;
4957;SDS011;2494;51.872;9.688;2022-08-14T09:30:58;9.00;;;7.80;;
4957;SDS011;2494;51.872;9.688;2022-08-14T09:33:35;7.40;;;6.90;;
4957;SDS011;2494;51.872;9.688;2022-08-14T09:36:14;6.43;;;5.93;;
4957;SDS011;2494;51.872;9.688;2022-08-14T09:38:45;6.37;;;5.87;;
4957;SDS011;2494;51.872;9.688;2022-08-14T09:41:17;6.97;;;6.57;;
4957;SDS011;2494;51.872;9.688;2022-08-14T09:43:50;7.17;;;6.77;;
4957;SDS011;2494;51.872;9.688;2022-08-14T09:46:20;6.40;;;6.00;;
4957;SDS011;2494;51.872;9.688;2022-08-14T09:48:56;6.93;;;6.53;;
4957;SDS011;2494;51.872;9.688;2022-08-14T09:51:23;6.30;;;5.80;;
4957;SDS011;2494;51.872;9.688;2022-08-14T09:53:58;6.17;;;5.87;;
4957;SDS011;2494;51.872;9.688;2022-08-14T09:56:25;6.00;;;5.70;;
4957;SDS011;2494;51.872;9.688;2022-08-14T09:58:51;6.23;;;5.83;;
4957;SDS011;2494;51.872;9.688;2022-08-14T10:01:18;7.93;;;5.67;;
4957;SDS011;2494;51.872;9.688;2022-08-14T10:03:49;6.07;;;5.37;;
4957;SDS011;2494;51.872;9.688;2022-08-14T10:06:17;6.13;;;5.83;;
4957;SDS011;2494;51.872;9.688;2022-08-14T10:08:46;6.27;;;5.87;;
4957;SDS011;2494;51.872;9.688;2022-08-14T10:11:15;6.10;;;5.80;;
4957;SDS011;2494;51.872;9.688;2022-08-14T10:13:43;5.87;;;5.53;;
4957;SDS011;2494;51.872;9.688;2022-08-14T10:16:09;6.53;;;6.10;;
4957;SDS011;2494;51.872;9.688;2022-08-14T10:18:36;7.10;;;6.50;;
4957;SDS011;2494;51.872;9.688;2022-08-14T10:21:06;6.80;;;6.10;;
4957;SDS011;2494;51.872;9.688;2022-08-14T10:23:38;7.17;;;6.70;;
4957;SDS011;2494;51.872;9.688;2022-08-14T10:26:06;6.80;;;6.40;;
4957;SDS011;2494;51.872;9.688;2022-08-14T10:28:37;6.97;;;6.40;;
4957;SDS011;2494;51.872;9.688;2022-08-14T10:31:14;6.07;;;5.77;;
4957;SDS011;2494;51.872;9.688;2022-08-14T10:33:40;6.40;;;6.03;;
4957;SDS011;2494;51.872;9.688;2022-08-14T10:36:07;8.43;;;6.70;;
4957;SDS011;2494;51.872;9.688;2022-08-14T10:38:35;6.67;;;6.27;;
4957;SDS011;2494;51.872;9.688;2022-08-14T10:41:09;6.00;;;5.60;;
4957;SDS011;2494;51.872;9.688;2022-08-14T10:43:37;6.20;;;5.80;;
4957;SDS011;2494;51.872;9.688;2022-08-14T10:46:10;5.20;;;5.00;;
4957;SDS011;2494;51.872;9.688;2022-08-14T10:48:37;7.17;;;6.67;;
4957;SDS011;2494;51.872;9.688;2022-08-14T10:51:03;6.30;;;6.00;;
4957;SDS011;2494;51.872;9.688;2022-08-14T10:53:31;6.10;;;5.80;;
4957;SDS011;2494;51.872;9.688;2022-08-14T10:56:01;5.23;;;4.93;;
4957;SDS011;2494;51.872;9.688;2022-08-14T10:58:32;7.57;;;7.17;;
4957;SDS011;2494;51.872;9.688;2022-08-14T11:00:59;6.70;;;6.30;;
4957;SDS011;2494;51.872;9.688;2022-08-14T11:03:39;6.57;;;6.17;;
4957;SDS011;2494;51.872;9.688;2022-08-14T11:06:15;6.77;;;6.37;;
4957;SDS011;2494;51.872;9.688;2022-08-14T11:08:43;6.10;;;5.80;;
4957;SDS011;2494;51.872;9.688;2022-08-14T11:11:10;6.20;;;5.80;;
4957;SDS011;2494;51.872;9.688;2022-08-14T11:13:39;5.90;;;5.50;;
4957;SDS011;2494;51.872;9.688;2022-08-14T11:16:07;6.10;;;5.70;;
4957;SDS011;2494;51.872;9.688;2022-08-14T11:18:35;5.83;;;5.53;;
4957;SDS011;2494;51.872;9.688;2022-08-14T11:21:02;6.70;;;6.10;;
4957;SDS011;2494;51.872;9.688;2022-08-14T11:23:31;6.23;;;5.93;;
4957;SDS011;2494;51.872;9.688;2022-08-14T11:25:58;7.03;;;6.53;;
4957;SDS011;2494;51.872;9.688;2022-08-14T11:28:26;6.70;;;6.37;;
4957;SDS011;2494;51.872;9.688;2022-08-14T11:30:54;6.53;;;6.13;;
4957;SDS011;2494;51.872;9.688;2022-08-14T11:33:21;6.07;;;5.77;;
4957;SDS011;2494;51.872;9.688;2022-08-14T11:35:49;8.03;;;7.43;;
4957;SDS011;2494;51.872;9.688;2022-08-14T11:38:15;6.83;;;6.13;;
4957;SDS011;2494;51.872;9.688;2022-08-14T11:40:45;6.13;;;5.80;;
4957;SDS011;2494;51.872;9.688;2022-08-14T11:43:12;7.57;;;6.90;;
4957;SDS011;2494;51.872;9.688;2022-08-14T11:45:44;6.50;;;6.00;;
4957;SDS011;2494;51.872;9.688;2022-08-14T11:48:17;7.13;;;6.73;;
4957;SDS011;2494;51.872;9.688;2022-08-14T11:50:43;6.40;;;6.10;;
4957;SDS011;2494;51.872;9.688;2022-08-14T11:53:20;5.93;;;5.53;;
4957;SDS011;2494;51.872;9.688;2022-08-14T11:55:46;6.57;;;6.27;;
4957;SDS011;2494;51.872;9.688;2022-08-14T11:58:14;6.50;;;6.00;;
4957;SDS011;2494;51.872;9.688;2022-08-14T12:00:45;7.10;;;6.67;;
4957;SDS011;2494;51.872;9.688;2022-08-14T12:03:11;6.67;;;6.27;;
4957;SDS011;2494;51.872;9.688;2022-08-14T12:05:39;7.00;;;6.60;;
4957;SDS011;2494;51.872;9.688;2022-08-14T12:08:06;6.77;;;6.47;;
4957;SDS011;2494;51.872;9.688;2022-08-14T12:10:33;6.90;;;6.50;;
4957;SDS011;2494;51.872;9.688;2022-08-14T12:13:09;7.17;;;6.67;;
4957;SDS011;2494;51.872;9.688;2022-08-14T12:15:35;6.87;;;6.47;;
4957;SDS011;2494;51.872;9.688;2022-08-14T12:18:02;7.60;;;7.20;;
4957;SDS011;2494;51.872;9.688;2022-08-14T12:20:29;7.17;;;6.50;;
4957;SDS011;2494;51.872;9.688;2022-08-14T12:22:57;6.50;;;6.20;;
4957;SDS011;2494;51.872;9.688;2022-08-14T12:25:24;6.67;;;6.37;;
4957;SDS011;2494;51.872;9.688;2022-08-14T12:27:51;7.20;;;6.80;;
4957;SDS011;2494;51.872;9.688;2022-08-14T12:30:30;6.30;;;5.90;;
4957;SDS011;2494;51.872;9.688;2022-08-14T12:32:57;7.60;;;7.10;;
4957;SDS011;2494;51.872;9.688;2022-08-14T12:35:34;5.97;;;5.57;;
4957;SDS011;2494;51.872;9.688;2022-08-14T12:38:02;7.03;;;6.43;;
4957;SDS011;2494;51.872;9.688;2022-08-14T12:40:28;6.17;;;5.87;;
4957;SDS011;2494;51.872;9.688;2022-08-14T12:42:57;6.37;;;5.73;;
4957;SDS011;2494;51.872;9.688;2022-08-14T12:45:28;6.73;;;6.33;;
4957;SDS011;2494;51.872;9.688;2022-08-14T12:47:58;5.77;;;5.37;;
4957;SDS011;2494;51.872;9.688;2022-08-14T12:50:32;6.50;;;6.20;;
4957;SDS011;2494;51.872;9.688;2022-08-14T12:52:59;5.80;;;5.50;;
4957;SDS011;2494;51.872;9.688;2022-08-14T12:55:27;6.30;;;5.90;;
4957;SDS011;2494;51.872;9.688;2022-08-14T12:57:53;6.97;;;6.57;;
4957;SDS011;2494;51.872;9.688;2022-08-14T13:00:24;6.87;;;6.23;;
4957;SDS011;2494;51.872;9.688;2022-08-14T13:02:51;5.67;;;5.43;;
4957;SDS011;2494;51.872;9.688;2022-08-14T13:05:19;6.17;;;5.87;;
4957;SDS011;2494;51.872;9.688;2022-08-14T13:07:46;6.43;;;6.03;;
4957;SDS011;2494;51.872;9.688;2022-08-14T13:10:16;6.13;;;5.83;;
4957;SDS011;2494;51.872;9.688;2022-08-14T13:12:43;6.43;;;5.67;;
4957;SDS011;2494;51.872;9.688;2022-08-14T13:15:10;5.60;;;5.30;;
4957;SDS011;2494;51.872;9.688;2022-08-14T13:17:40;6.30;;;5.80;;
4957;SDS011;2494;51.872;9.688;2022-08-14T13:20:07;5.23;;;4.90;;
4957;SDS011;2494;51.872;9.688;2022-08-14T13:22:35;5.77;;;5.40;;
4957;SDS011;2494;51.872;9.688;2022-08-14T13:25:02;8.33;;;5.50;;
4957;SDS011;2494;51.872;9.688;2022-08-14T13:27:29;5.00;;;4.70;;
4957;SDS011;2494;51.872;9.688;2022-08-14T13:29:58;6.60;;;6.07;;
4957;SDS011;2494;51.872;9.688;2022-08-14T13:32:24;6.77;;;6.30;;
4957;SDS011;2494;51.872;9.688;2022-08-14T13:34:51;5.80;;;5.50;;
4957;SDS011;2494;51.872;9.688;2022-08-14T13:37:17;6.07;;;5.77;;
4957;SDS011;2494;51.872;9.688;2022-08-14T13:39:45;5.83;;;5.53;;
4957;SDS011;2494;51.872;9.688;2022-08-14T13:42:12;6.10;;;5.50;;
4957;SDS011;2494;51.872;9.688;2022-08-14T13:44:39;5.50;;;5.20;;
4957;SDS011;2494;51.872;9.688;2022-08-14T13:47:07;5.20;;;4.80;;
4957;SDS011;2494;51.872;9.688;2022-08-14T13:49:33;5.30;;;5.00;;
4957;SDS011;2494;51.872;9.688;2022-08-14T13:52:01;5.53;;;5.20;;
4957;SDS011;2494;51.872;9.688;2022-08-14T13:54:29;5.80;;;5.40;;
4957;SDS011;2494;51.872;9.688;2022-08-14T13:56:57;5.53;;;5.03;;
4957;SDS011;2494;51.872;9.688;2022-08-14T13:59:24;5.80;;;5.40;;
4957;SDS011;2494;51.872;9.688;2022-08-14T14:01:53;5.93;;;5.50;;
4957;SDS011;2494;51.872;9.688;2022-08-14T14:04:22;6.77;;;6.37;;
4957;SDS011;2494;51.872;9.688;2022-08-14T14:06:49;6.00;;;5.70;;
4957;SDS011;2494;51.872;9.688;2022-08-14T14:09:20;7.03;;;6.63;;
4957;SDS011;2494;51.872;9.688;2022-08-14T14:11:46;7.00;;;6.40;;
4957;SDS011;2494;51.872;9.688;2022-08-14T14:14:12;6.33;;;5.90;;
4957;SDS011;2494;51.872;9.688;2022-08-14T14:16:40;5.83;;;5.33;;
4957;SDS011;2494;51.872;9.688;2022-08-14T14:19:07;6.10;;;5.70;;
4957;SDS011;2494;51.872;9.688;2022-08-14T14:21:35;6.67;;;6.10;;
4957;SDS011;2494;51.872;9.688;2022-08-14T14:24:02;7.00;;;6.60;;
4957;SDS011;2494;51.872;9.688;2022-08-14T14:26:28;7.30;;;6.90;;
4957;SDS011;2494;51.872;9.688;2022-08-14T14:28:55;6.60;;;6.10;;
4957;SDS011;2494;51.872;9.688;2022-08-14T14:31:22;5.80;;;5.50;;
4957;SDS011;2494;51.872;9.688;2022-08-14T14:33:50;6.43;;;6.03;;
4957;SDS011;2494;51.872;9.688;2022-08-14T14:36:17;6.20;;;5.80;;
4957;SDS011;2494;51.872;9.688;2022-08-14T14:38:45;6.07;;;5.77;;
4957;SDS011;2494;51.872;9.688;2022-08-14T14:41:15;6.40;;;6.00;;
4957;SDS011;2494;51.872;9.688;2022-08-14T14:43:45;5.80;;;5.50;;
4957;SDS011;2494;51.872;9.688;2022-08-14T14:46:14;5.87;;;5.57;;
4957;SDS011;2494;51.872;9.688;2022-08-14T14:48:41;6.60;;;6.13;;
4957;SDS011;2494;51.872;9.688;2022-08-14T14:51:09;5.60;;;5.23;;
4957;SDS011;2494;51.872;9.688;2022-08-14T14:53:36;6.43;;;6.13;;
4957;SDS011;2494;51.872;9.688;2022-08-14T14:56:05;7.43;;;5.60;;
4957;SDS011;2494;51.872;9.688;2022-08-14T14:58:33;5.93;;;5.43;;
4957;SDS011;2494;51.872;9.688;2022-08-14T15:01:00;6.83;;;6.43;;
4957;SDS011;2494;51.872;9.688;2022-08-14T15:03:27;6.27;;;5.77;;
4957;SDS011;2494;51.872;9.688;2022-08-14T15:05:54;6.30;;;5.90;;
4957;SDS011;2494;51.872;9.688;2022-08-14T15:08:21;5.47;;;5.17;;
4957;SDS011;2494;51.872;9.688;2022-08-14T15:10:47;5.57;;;5.27;;
4957;SDS011;2494;51.872;9.688;2022-08-14T15:13:15;7.43;;;6.83;;
4957;SDS011;2494;51.872;9.688;2022-08-14T15:15:41;6.50;;;6.10;;